Cascavel Airport


Codes: SBCA/CAC
Name: Cascavel Airport
City: Cascavel
Country: Brazil
Elevation: 2473 ft.
Wikipedia:

Photos at Cascavel Airport


   Photos courtesy of SpottingLog. You can add your own sightings and photos by signing up for a free trial today.



PR-ATW, 03-Apr-2013
© Luis Vaz


Weather at Cascavel Airport


Time (UTC)DescriptionTempratureWindCloud coverageVisibilityPressureHumidity
16-Jun-2024 12:00Clear Sky19°C11 mph, NE9%10000m1016hPa53%
16-Jun-2024 15:00Clear Sky23°C13 mph, N7%10000m1016hPa44%
16-Jun-2024 18:00Few Clouds27°C13 mph, N14%10000m1013hPa37%
16-Jun-2024 21:00Scattered Clouds23°C7 mph, NE39%10000m1013hPa48%
17-Jun-2024 00:00Scattered Clouds22°C9 mph, NE46%10000m1013hPa44%
17-Jun-2024 03:00Scattered Clouds20°C9 mph, NE26%10000m1013hPa48%
17-Jun-2024 06:00Broken Clouds20°C4 mph, NW52%10000m1013hPa47%
17-Jun-2024 09:00Broken Clouds17°C4 mph, N76%10000m1012hPa54%
17-Jun-2024 12:00Scattered Clouds20°C9 mph, NE43%10000m1014hPa52%
17-Jun-2024 15:00Broken Clouds22°C9 mph, N60%10000m1013hPa45%
17-Jun-2024 18:00Broken Clouds26°C11 mph, N67%10000m1009hPa38%
17-Jun-2024 21:00Few Clouds21°C4 mph, NE13%10000m1009hPa50%
18-Jun-2024 00:00Scattered Clouds22°C9 mph, NE37%10000m1010hPa42%
18-Jun-2024 03:00Broken Clouds22°C7 mph, N83%10000m1010hPa42%
18-Jun-2024 06:00Overcast Clouds20°C2 mph, N92%10000m1011hPa48%
18-Jun-2024 09:00Overcast Clouds19°C4 mph, NE99%10000m1011hPa57%
18-Jun-2024 12:00Overcast Clouds20°C9 mph, NE92%10000m1012hPa46%
18-Jun-2024 15:00Scattered Clouds23°C13 mph, NE35%10000m1012hPa39%
18-Jun-2024 18:00Few Clouds24°C11 mph, N21%10000m1010hPa35%
18-Jun-2024 21:00Clear Sky20°C7 mph, NE6%10000m1010hPa43%
19-Jun-2024 00:00Few Clouds20°C7 mph, NE14%10000m1011hPa39%
19-Jun-2024 03:00Clear Sky22°C11 mph, NE6%10000m1011hPa32%
19-Jun-2024 06:00Clear Sky20°C11 mph, NE9%10000m1011hPa34%
19-Jun-2024 09:00Few Clouds19°C11 mph, NE13%10000m1012hPa37%
19-Jun-2024 12:00Broken Clouds20°C13 mph, NE56%10000m1014hPa39%
19-Jun-2024 15:00Overcast Clouds25°C11 mph, N94%10000m1014hPa32%
19-Jun-2024 18:00Overcast Clouds27°C11 mph, N97%10000m1011hPa28%
19-Jun-2024 21:00Scattered Clouds22°C7 mph, NE42%10000m1011hPa37%
20-Jun-2024 00:00Scattered Clouds21°C9 mph, NE48%10000m1012hPa35%
20-Jun-2024 03:00Scattered Clouds21°C9 mph, NE49%10000m1012hPa34%
20-Jun-2024 06:00Broken Clouds21°C9 mph, NE75%10000m1012hPa32%
20-Jun-2024 09:00Overcast Clouds19°C2 mph, S100%10000m1013hPa39%
20-Jun-2024 12:00Overcast Clouds19°C4 mph, SE100%10000m1016hPa43%
20-Jun-2024 15:00Overcast Clouds19°C7 mph, SE100%10000m1015hPa45%
20-Jun-2024 18:00Overcast Clouds23°C7 mph, E100%10000m1013hPa38%
20-Jun-2024 21:00Overcast Clouds19°C9 mph, SE100%10000m1014hPa52%
21-Jun-2024 00:00Light Rain17°C11 mph, SE100%10000m1015hPa76%
21-Jun-2024 03:00Light Rain16°C4 mph, SE100%10000m1014hPa87%
21-Jun-2024 06:00Light Rain16°C11 mph, E73%10000m1012hPa82%
21-Jun-2024 09:00Broken Clouds18°C13 mph, NE81%10000m1012hPa65%